createdAt,value
2022-11-05T00:03:19.397Z,9.60
2022-11-05T00:08:43.921Z,8.80
2022-11-05T00:14:07.020Z,7.72
2022-11-05T00:19:13.737Z,9.00
2022-11-05T00:24:38.533Z,9.15
2022-11-05T00:29:44.572Z,9.52
2022-11-05T00:34:51.990Z,9.73
2022-11-05T00:39:59.595Z,9.25
2022-11-05T00:45:07.076Z,10.15
2022-11-05T00:50:17.761Z,10.18
2022-11-05T00:55:26.674Z,10.85
2022-11-05T01:00:34.280Z,10.30
2022-11-05T01:05:46.232Z,9.85
2022-11-05T01:10:56.815Z,9.75
2022-11-05T01:16:09.065Z,8.73
2022-11-05T01:21:19.451Z,9.95
2022-11-05T01:26:52.998Z,9.40
2022-11-05T01:31:59.888Z,9.52
2022-11-05T01:37:06.004Z,8.70
2022-11-05T01:42:23.612Z,9.18
2022-11-05T01:47:56.629Z,9.05
2022-11-05T01:53:17.512Z,9.63
2022-11-05T01:58:29.547Z,9.38
2022-11-05T02:03:36.236Z,9.52
2022-11-05T02:08:56.747Z,9.00
2022-11-05T02:14:05.120Z,9.60
2022-11-05T02:19:55.508Z,10.03
2022-11-05T02:25:29.365Z,9.38
2022-11-05T02:30:48.066Z,10.70
2022-11-05T02:36:17.427Z,9.90
2022-11-05T02:41:31.935Z,9.80
2022-11-05T02:46:51.372Z,10.27
2022-11-05T02:52:01.096Z,10.25
2022-11-05T02:57:07.775Z,10.10
2022-11-05T03:02:15.843Z,11.70
2022-11-05T03:07:43.503Z,12.20
2022-11-05T03:14:02.959Z,10.70
2022-11-05T03:19:19.095Z,10.15
2022-11-05T03:24:29.744Z,11.85
2022-11-05T03:29:39.948Z,11.38
2022-11-05T03:34:51.999Z,10.90
2022-11-05T03:40:02.470Z,10.25
2022-11-05T03:45:17.195Z,10.15
2022-11-05T03:50:38.488Z,10.20
2022-11-05T03:55:54.211Z,11.63
2022-11-05T04:01:03.505Z,11.00
2022-11-05T04:06:30.074Z,11.02
2022-11-05T04:11:54.958Z,11.80
2022-11-05T04:17:10.198Z,12.13
2022-11-05T04:22:35.352Z,12.60
2022-11-05T04:27:41.492Z,11.13
2022-11-05T04:33:06.744Z,11.20
2022-11-05T04:38:18.652Z,12.23
2022-11-05T04:43:24.819Z,11.02
2022-11-05T04:48:30.976Z,14.43
2022-11-05T04:53:38.785Z,11.93
2022-11-05T04:58:45.610Z,11.35
2022-11-05T05:03:53.005Z,11.63
2022-11-05T05:09:00.555Z,12.07
2022-11-05T05:14:06.596Z,11.32
2022-11-05T05:19:12.901Z,11.38
2022-11-05T05:24:25.206Z,12.38
2022-11-05T05:29:31.309Z,12.85
2022-11-05T05:34:38.745Z,12.45
2022-11-05T05:39:48.138Z,11.23
2022-11-05T05:44:54.187Z,12.82
2022-11-05T05:50:00.469Z,11.80
2022-11-05T05:55:10.062Z,13.88
2022-11-05T06:00:17.115Z,13.50
2022-11-05T06:05:23.164Z,11.55
2022-11-05T06:10:30.612Z,13.23
2022-11-05T06:15:37.179Z,13.65
2022-11-05T06:20:43.365Z,13.77
2022-11-05T06:25:51.033Z,13.60
2022-11-05T06:30:57.270Z,13.68
2022-11-05T06:36:04.944Z,12.93
2022-11-05T06:41:12.912Z,14.00
2022-11-05T06:46:18.987Z,13.63
2022-11-05T06:51:25.829Z,12.98
2022-11-05T06:56:33.528Z,15.88
2022-11-05T07:01:39.852Z,15.88
2022-11-05T07:06:46.171Z,14.75
2022-11-05T07:11:53.603Z,15.82
2022-11-05T07:16:59.792Z,13.90
2022-11-05T07:22:06.891Z,15.88
2022-11-05T07:27:14.889Z,13.73
2022-11-05T07:32:21.249Z,14.32
2022-11-05T07:37:27.546Z,15.80
2022-11-05T07:42:36.956Z,15.30
2022-11-05T07:47:49.123Z,15.07
2022-11-05T07:52:55.561Z,16.15
2022-11-05T07:58:03.184Z,14.57
2022-11-05T08:03:14.249Z,14.20
2022-11-05T08:08:21.952Z,14.65
2022-11-05T08:13:29.679Z,13.77
2022-11-05T08:18:36.273Z,13.85
2022-11-05T08:23:43.324Z,15.90
2022-11-05T08:28:50.894Z,15.93
2022-11-05T08:34:01.363Z,13.93
2022-11-05T08:39:14.288Z,13.95
2022-11-05T08:44:24.472Z,13.50
2022-11-05T08:49:30.746Z,13.23
2022-11-05T08:54:37.190Z,13.15
2022-11-05T08:59:44.600Z,13.38
2022-11-05T09:04:52.013Z,14.55
2022-11-05T09:09:58.298Z,13.55
2022-11-05T09:15:06.797Z,13.20
2022-11-05T09:20:13.990Z,13.30
2022-11-05T09:25:20.183Z,12.77
2022-11-05T09:30:27.589Z,13.68
2022-11-05T09:35:33.895Z,12.63
2022-11-05T09:40:44.334Z,13.93
2022-11-05T09:45:57.478Z,13.63
2022-11-05T09:51:05.603Z,14.65
2022-11-05T09:56:25.462Z,13.10
2022-11-05T10:01:37.104Z,13.18
2022-11-05T10:06:59.179Z,13.80
2022-11-05T10:12:13.419Z,12.13
2022-11-05T10:17:27.222Z,13.68
2022-11-05T10:22:33.170Z,13.80
2022-11-05T10:27:40.274Z,13.52
2022-11-05T10:32:49.916Z,13.80
2022-11-05T10:37:55.957Z,14.48
2022-11-05T10:43:08.401Z,16.17
2022-11-05T10:48:45.156Z,15.23
2022-11-05T10:54:01.700Z,16.92
2022-11-05T10:59:22.199Z,16.00
2022-11-05T11:04:37.448Z,15.75
2022-11-05T11:09:51.246Z,16.42
2022-11-05T11:15:03.887Z,17.13
2022-11-05T11:20:29.338Z,16.98
2022-11-05T11:25:47.669Z,15.07
2022-11-05T11:31:04.004Z,15.18
2022-11-05T11:36:14.713Z,14.95
2022-11-05T11:41:30.664Z,11.75
2022-11-05T11:56:10.809Z,16.10
2022-11-05T12:02:08.052Z,14.98
2022-11-05T12:07:33.994Z,14.10
2022-11-05T12:12:51.150Z,14.50
2022-11-05T12:18:05.157Z,15.85
2022-11-05T12:23:32.347Z,14.60
2022-11-05T12:29:18.367Z,18.10
2022-11-05T12:34:44.316Z,18.42
2022-11-05T12:40:15.825Z,17.30
2022-11-05T12:45:40.807Z,25.48
2022-11-05T12:50:54.495Z,32.50
2022-11-05T12:56:11.282Z,30.83
2022-11-05T13:01:25.091Z,29.55
2022-11-05T13:06:43.012Z,31.25
2022-11-05T13:11:55.141Z,25.73
2022-11-05T13:17:09.719Z,19.55
2022-11-05T13:28:40.750Z,21.35
2022-11-05T13:33:50.522Z,21.73
2022-11-05T13:39:07.417Z,29.27
2022-11-05T13:44:43.998Z,31.13
2022-11-05T13:50:25.517Z,29.92
2022-11-05T13:55:58.906Z,28.60
2022-11-05T14:01:18.847Z,25.52
2022-11-05T14:06:29.462Z,21.50
2022-11-05T14:11:39.465Z,20.52
2022-11-05T14:16:54.361Z,18.15
2022-11-05T14:22:01.759Z,18.00
2022-11-05T14:27:52.558Z,17.67
2022-11-05T14:33:15.740Z,17.45
2022-11-05T14:38:26.450Z,17.63
2022-11-05T14:43:36.615Z,17.13
2022-11-05T14:48:50.147Z,16.50
2022-11-05T14:54:06.124Z,15.75
2022-11-05T14:59:37.026Z,15.23
2022-11-05T15:04:48.208Z,15.48
2022-11-05T15:10:07.142Z,16.20
2022-11-05T15:15:24.671Z,13.32
2022-11-05T15:20:40.701Z,16.33
2022-11-05T15:25:53.832Z,12.93
2022-11-05T15:31:04.465Z,13.52
2022-11-05T15:36:30.108Z,14.50
2022-11-05T15:41:38.674Z,15.30
2022-11-05T15:46:46.998Z,15.05
2022-11-05T15:51:55.910Z,14.40
2022-11-05T15:57:03.074Z,13.75
2022-11-05T16:02:33.754Z,13.98
2022-11-05T16:07:44.541Z,13.70
2022-11-05T16:12:59.626Z,12.43
2022-11-05T16:18:24.627Z,12.00
2022-11-05T16:23:47.194Z,12.05
2022-11-05T16:28:55.076Z,11.38
2022-11-05T16:34:02.711Z,12.80
2022-11-05T16:39:12.185Z,12.20
2022-11-05T16:44:20.361Z,11.30
2022-11-05T16:49:28.109Z,10.43
2022-11-05T16:54:36.674Z,10.30
2022-11-05T16:59:45.472Z,10.35
2022-11-05T17:04:54.303Z,10.35
2022-11-05T17:10:03.665Z,10.15
2022-11-05T17:15:21.467Z,7.40
2022-11-05T17:20:40.764Z,6.10
2022-11-05T17:25:53.173Z,5.78
2022-11-05T17:31:02.609Z,4.45
2022-11-05T17:36:15.683Z,4.43
2022-11-05T17:41:26.628Z,4.63
2022-11-05T17:46:34.357Z,5.03
2022-11-05T17:51:41.709Z,3.63
2022-11-05T17:56:50.305Z,4.10
2022-11-05T18:01:58.862Z,3.13
2022-11-05T18:07:09.698Z,2.75
2022-11-05T18:12:19.223Z,3.28
2022-11-05T18:22:37.311Z,3.55
2022-11-05T18:27:47.338Z,3.95
2022-11-05T18:32:56.211Z,3.50
2022-11-05T18:38:06.239Z,3.47
2022-11-05T18:43:17.320Z,5.43
2022-11-05T18:48:25.212Z,4.13
2022-11-05T18:53:33.874Z,4.20
2022-11-05T18:58:45.356Z,3.90
2022-11-05T19:03:58.213Z,4.53
2022-11-05T19:09:12.777Z,5.55
2022-11-05T19:14:34.438Z,5.18
2022-11-05T19:19:42.214Z,4.70
2022-11-05T19:24:52.540Z,4.35
2022-11-05T19:30:02.450Z,5.63
2022-11-05T19:35:11.785Z,4.75
2022-11-05T19:40:20.133Z,5.03
2022-11-05T19:45:44.209Z,4.43
2022-11-05T19:50:52.308Z,4.47
2022-11-05T19:56:00.657Z,4.20
2022-11-05T20:01:11.783Z,4.10
2022-11-05T20:06:24.923Z,4.43
2022-11-05T20:11:32.861Z,3.72
2022-11-05T20:16:42.513Z,4.57
2022-11-05T20:21:51.622Z,4.13
2022-11-05T20:26:59.891Z,4.05
2022-11-05T20:32:09.580Z,4.40
2022-11-05T20:37:16.871Z,4.10
2022-11-05T20:42:25.180Z,4.22
2022-11-05T20:47:35.831Z,4.07
2022-11-05T20:52:44.422Z,3.88
2022-11-05T20:57:51.354Z,3.75
2022-11-05T21:03:01.678Z,4.00
2022-11-05T21:08:09.986Z,4.13
2022-11-05T21:13:18.468Z,4.20
2022-11-05T21:18:33.836Z,4.70
2022-11-05T21:23:42.983Z,3.70
2022-11-05T21:28:52.614Z,4.60
2022-11-05T21:34:01.071Z,4.95
2022-11-05T21:39:13.207Z,5.40
2022-11-05T21:44:20.912Z,5.18
2022-11-05T21:49:29.628Z,5.80
2022-11-05T21:54:54.067Z,5.45
2022-11-05T22:00:01.852Z,6.70
2022-11-05T22:05:15.322Z,4.97
2022-11-05T22:10:22.770Z,5.38
2022-11-05T22:15:30.169Z,4.78
2022-11-05T22:20:40.518Z,4.50
2022-11-05T22:25:47.324Z,4.28
2022-11-05T22:30:54.035Z,4.03
2022-11-05T22:36:02.045Z,4.88
2022-11-05T22:41:13.309Z,4.57
2022-11-05T22:46:22.819Z,4.82
2022-11-05T22:51:33.412Z,4.00
2022-11-05T22:56:43.189Z,3.65
2022-11-05T23:01:50.000Z,3.72
2022-11-05T23:07:15.509Z,4.05
2022-11-05T23:12:27.410Z,3.00
2022-11-05T23:17:51.399Z,3.08
2022-11-05T23:23:17.550Z,3.03
2022-11-05T23:28:24.343Z,2.30
2022-11-05T23:33:34.828Z,2.60
2022-11-05T23:38:42.742Z,2.10
2022-11-05T23:44:08.641Z,2.20
2022-11-05T23:49:15.160Z,3.63
2022-11-05T23:54:23.555Z,3.13
2022-11-05T23:59:29.828Z,2.67
